createdAt,value
2023-02-26T00:01:32.273Z,101006.66
2023-02-26T00:04:02.836Z,101011.81
2023-02-26T00:06:34.821Z,101016.13
2023-02-26T00:09:02.130Z,101018.69
2023-02-26T00:11:29.352Z,101024.81
2023-02-26T00:13:56.542Z,101027.34
2023-02-26T00:16:35.576Z,101024.66
2023-02-26T00:19:06.760Z,101030.59
2023-02-26T00:21:35.816Z,101043.53
2023-02-26T00:24:03.438Z,101046.06
2023-02-26T00:26:31.828Z,101047.84
2023-02-26T00:28:59.248Z,101049.63
2023-02-26T00:31:27.134Z,101051.38
2023-02-26T00:33:56.933Z,101059.28
2023-02-26T00:36:45.277Z,101054.16
2023-02-26T00:39:45.899Z,101054.16
2023-02-26T00:42:13.900Z,101061.16
2023-02-26T00:44:41.410Z,101064.59
2023-02-26T00:47:56.015Z,101072.44
2023-02-26T00:50:26.070Z,101070.75
2023-02-26T00:53:28.157Z,101077.78
2023-02-26T00:55:54.956Z,101075.16
2023-02-26T00:58:21.721Z,101076.13
2023-02-26T01:00:48.515Z,101081.22
2023-02-26T01:03:15.625Z,101070.72
2023-02-26T01:05:42.944Z,101085.44
2023-02-26T01:08:21.931Z,101079.31
2023-02-26T01:10:49.222Z,101083.72
2023-02-26T01:13:16.243Z,101086.41
2023-02-26T01:15:50.363Z,101081.22
2023-02-26T01:18:33.599Z,101077.78
2023-02-26T01:21:06.518Z,101089.13
2023-02-26T01:23:40.684Z,101093.53
2023-02-26T01:26:15.736Z,101091.81
2023-02-26T01:28:42.837Z,101106.72
2023-02-26T01:31:24.103Z,101106.78
2023-02-26T01:34:09.308Z,101103.28
2023-02-26T01:36:44.376Z,101114.75
2023-02-26T01:39:29.214Z,101107.84
2023-02-26T01:42:09.707Z,101115.69
2023-02-26T01:45:11.762Z,101125.31
2023-02-26T01:47:52.800Z,101124.38
2023-02-26T01:50:25.637Z,101121.75
2023-02-26T01:53:04.274Z,101121.75
2023-02-26T01:55:31.183Z,101130.53
2023-02-26T01:58:00.568Z,101143.69
2023-02-26T02:00:27.380Z,101136.66
2023-02-26T02:02:54.641Z,101152.50
2023-02-26T02:05:31.847Z,101152.53
2023-02-26T02:07:59.710Z,101155.97
2023-02-26T02:10:28.005Z,101165.63
2023-02-26T02:13:19.986Z,101171.00
2023-02-26T02:16:20.321Z,101168.31
2023-02-26T02:18:46.971Z,101160.38
2023-02-26T02:21:39.419Z,101163.97
2023-02-26T02:24:54.570Z,101184.00
2023-02-26T02:27:58.280Z,101183.00
2023-02-26T02:30:57.111Z,101180.38
2023-02-26T02:33:31.799Z,101189.16
2023-02-26T02:36:07.778Z,101191.84
2023-02-26T02:39:04.803Z,101190.97
2023-02-26T02:41:55.971Z,101200.59
2023-02-26T02:44:26.686Z,101203.25
2023-02-26T02:46:57.320Z,101194.56
2023-02-26T02:49:33.910Z,101198.16
2023-02-26T02:52:20.762Z,101202.50
2023-02-26T02:55:02.340Z,101207.72
2023-02-26T02:57:38.873Z,101209.44
2023-02-26T03:00:10.773Z,101203.38
2023-02-26T03:03:01.261Z,101207.72
2023-02-26T03:05:28.174Z,101207.72
2023-02-26T03:08:05.369Z,101219.19
2023-02-26T03:10:32.883Z,101226.22
2023-02-26T03:12:59.683Z,101218.38
2023-02-26T03:15:52.309Z,101219.28
2023-02-26T03:18:52.428Z,101223.53
2023-02-26T03:21:35.411Z,101233.09
2023-02-26T03:24:29.391Z,101229.59
2023-02-26T03:27:28.719Z,101232.19
2023-02-26T03:30:10.742Z,101235.72
2023-02-26T03:32:50.218Z,101235.69
2023-02-26T03:35:56.259Z,101246.09
2023-02-26T03:38:37.631Z,101251.38
2023-02-26T03:41:14.762Z,101256.63
2023-02-26T03:44:14.241Z,101264.47
2023-02-26T03:46:46.495Z,101256.53
2023-02-26T03:49:20.512Z,101266.19
2023-02-26T03:51:48.150Z,101264.47
2023-02-26T03:54:33.012Z,101267.09
2023-02-26T03:56:59.884Z,101280.16
2023-02-26T03:59:26.834Z,101283.69
2023-02-26T04:02:06.328Z,101284.69
2023-02-26T04:04:52.810Z,101289.09
2023-02-26T04:07:22.168Z,101289.03
2023-02-26T04:09:51.416Z,101284.69
2023-02-26T04:12:36.364Z,101289.91
2023-02-26T04:15:05.317Z,101290.75
2023-02-26T04:17:32.281Z,101297.78
2023-02-26T04:19:59.044Z,101304.78
2023-02-26T04:22:25.938Z,101308.28
2023-02-26T04:24:52.699Z,101307.41
2023-02-26T04:27:19.483Z,101310.06
2023-02-26T04:29:46.276Z,101324.13
2023-02-26T04:32:13.151Z,101323.22
2023-02-26T04:34:40.083Z,101329.34
2023-02-26T04:37:06.885Z,101323.34
2023-02-26T04:39:33.706Z,101332.09
2023-02-26T04:42:00.504Z,101330.28
2023-02-26T04:44:27.312Z,101327.69
2023-02-26T04:46:54.116Z,101331.19
2023-02-26T04:49:20.903Z,101334.72
2023-02-26T04:51:47.713Z,101346.06
2023-02-26T04:54:14.646Z,101341.66
2023-02-26T04:56:41.587Z,101342.47
2023-02-26T04:59:08.357Z,101353.84
2023-02-26T05:01:35.807Z,101357.31
2023-02-26T05:04:02.836Z,101352.84
2023-02-26T05:06:29.622Z,101363.19
2023-02-26T05:08:56.661Z,101368.28
2023-02-26T05:11:23.543Z,101377.88
2023-02-26T05:13:50.354Z,101378.63
2023-02-26T05:16:17.236Z,101381.13
2023-02-26T05:18:44.006Z,101386.16
2023-02-26T05:21:10.848Z,101383.38
2023-02-26T05:23:37.631Z,101394.44
2023-02-26T05:26:04.498Z,101393.31
2023-02-26T05:28:31.677Z,101407.91
2023-02-26T05:30:58.702Z,101408.53
2023-02-26T05:33:26.467Z,101417.97
2023-02-26T05:35:53.583Z,101415.09
2023-02-26T05:38:20.438Z,101422.66
2023-02-26T05:40:47.235Z,101432.09
2023-02-26T05:43:14.059Z,101433.69
2023-02-26T05:45:40.815Z,101438.69
2023-02-26T05:48:07.650Z,101443.81
2023-02-26T05:50:34.430Z,101448.00
2023-02-26T05:53:01.360Z,101453.06
2023-02-26T05:55:28.274Z,101455.63
2023-02-26T05:57:55.102Z,101454.66
2023-02-26T06:00:21.959Z,101455.44
2023-02-26T06:02:48.949Z,101461.38
2023-02-26T06:05:15.926Z,101469.16
2023-02-26T06:07:42.740Z,101474.25
2023-02-26T06:10:10.901Z,101479.34
2023-02-26T06:12:38.694Z,101485.38
2023-02-26T06:15:07.725Z,101484.44
2023-02-26T06:17:35.554Z,101485.97
2023-02-26T06:20:03.416Z,101493.81
2023-02-26T06:22:30.557Z,101492.91
2023-02-26T06:24:57.336Z,101490.31
2023-02-26T06:27:25.230Z,101499.13
2023-02-26T06:29:52.077Z,101503.53
2023-02-26T06:32:18.991Z,101508.91
2023-02-26T06:34:45.846Z,101505.47
2023-02-26T06:37:12.659Z,101517.84
2023-02-26T06:39:39.427Z,101523.22
2023-02-26T06:42:06.256Z,101509.47
2023-02-26T06:44:33.070Z,101527.06
2023-02-26T06:46:59.880Z,101533.28
2023-02-26T06:49:26.672Z,101523.84
2023-02-26T06:51:53.485Z,101527.50
2023-02-26T06:54:20.348Z,101539.84
2023-02-26T06:56:47.134Z,101542.53
2023-02-26T06:59:15.240Z,101550.38
2023-02-26T07:01:42.305Z,101549.53
2023-02-26T07:04:09.394Z,101559.16
2023-02-26T07:06:36.248Z,101562.59
2023-02-26T07:09:03.218Z,101566.06
2023-02-26T07:11:30.018Z,101565.28
2023-02-26T07:13:56.843Z,101576.50
2023-02-26T07:16:24.069Z,101574.75
2023-02-26T07:18:50.962Z,101583.59
2023-02-26T07:21:17.780Z,101593.22
2023-02-26T07:23:44.617Z,101583.66
2023-02-26T07:26:11.367Z,101582.13
2023-02-26T07:28:38.245Z,101596.53
2023-02-26T07:31:05.430Z,101593.81
2023-02-26T07:33:32.496Z,101612.91
2023-02-26T07:35:59.349Z,101611.19
2023-02-26T07:38:26.251Z,101617.91
2023-02-26T07:40:56.415Z,101615.63
2023-02-26T07:43:24.629Z,101620.88
2023-02-26T07:45:52.901Z,101631.34
2023-02-26T07:48:20.092Z,101629.44
2023-02-26T07:50:47.231Z,101641.53
2023-02-26T07:53:14.039Z,101641.47
2023-02-26T07:55:40.816Z,101643.94
2023-02-26T07:58:07.568Z,101641.25
2023-02-26T08:00:34.330Z,101651.09
2023-02-26T08:03:01.119Z,101656.97
2023-02-26T08:05:30.051Z,101656.16
2023-02-26T08:07:57.052Z,101662.41
2023-02-26T08:10:24.311Z,101667.81
2023-02-26T08:12:51.097Z,101652.31
2023-02-26T08:15:17.969Z,101666.34
2023-02-26T08:17:44.761Z,101666.28
2023-02-26T08:20:12.344Z,101664.28
2023-02-26T08:22:39.152Z,101662.16
2023-02-26T08:25:06.659Z,101668.63
2023-02-26T08:27:33.677Z,101675.91
2023-02-26T08:30:00.480Z,101684.97
2023-02-26T08:32:28.183Z,101686.84
2023-02-26T08:34:55.570Z,101692.22
2023-02-26T08:37:24.919Z,101699.25
2023-02-26T08:39:52.744Z,101693.91
2023-02-26T08:42:20.554Z,101706.97
2023-02-26T08:44:47.744Z,101707.63
2023-02-26T08:47:19.171Z,101715.28
2023-02-26T08:49:51.381Z,101704.56
2023-02-26T08:52:18.192Z,101707.72
2023-02-26T08:54:44.944Z,101716.31
2023-02-26T08:57:11.870Z,101720.56
2023-02-26T08:59:38.697Z,101725.66
2023-02-26T09:02:05.507Z,101734.28
2023-02-26T09:04:32.279Z,101740.41
2023-02-26T09:06:59.076Z,101735.16
2023-02-26T09:09:25.851Z,101741.28
2023-02-26T09:11:52.698Z,101735.16
2023-02-26T09:14:19.555Z,101739.53
2023-02-26T09:16:46.384Z,101735.16
2023-02-26T09:19:13.767Z,101742.31
2023-02-26T09:21:40.649Z,101743.22
2023-02-26T09:24:07.964Z,101746.81
2023-02-26T09:26:34.750Z,101744.19
2023-02-26T09:29:01.506Z,101746.03
2023-02-26T09:31:28.408Z,101755.78
2023-02-26T09:33:55.244Z,101751.47
2023-02-26T09:36:22.048Z,101753.44
2023-02-26T09:38:48.867Z,101743.94
2023-02-26T09:41:19.390Z,101744.94
2023-02-26T09:44:08.563Z,101751.34
2023-02-26T09:46:51.166Z,101750.63
2023-02-26T09:49:49.225Z,101762.09
2023-02-26T09:52:32.502Z,101757.84
2023-02-26T09:55:06.253Z,101764.09
2023-02-26T09:57:36.133Z,101770.44
2023-02-26T10:00:17.789Z,101774.06
2023-02-26T10:03:14.423Z,101770.72
2023-02-26T10:06:14.199Z,101783.09
2023-02-26T10:09:03.308Z,101792.88
2023-02-26T10:12:15.576Z,101779.84
2023-02-26T10:14:53.050Z,101781.63
2023-02-26T10:17:23.076Z,101788.84
2023-02-26T10:19:57.912Z,101788.16
2023-02-26T10:22:33.754Z,101790.97
2023-02-26T10:25:13.365Z,101799.00
2023-02-26T10:28:33.717Z,101798.25
2023-02-26T10:31:49.241Z,101801.72
2023-02-26T10:34:44.684Z,101804.41
2023-02-26T10:37:24.319Z,101800.09
2023-02-26T10:40:00.039Z,101810.75
2023-02-26T10:42:33.877Z,101807.41
2023-02-26T10:45:42.880Z,101807.56
2023-02-26T10:48:44.067Z,101802.31
2023-02-26T10:51:26.080Z,101817.25
2023-02-26T10:53:59.900Z,101809.47
2023-02-26T10:56:31.601Z,101819.25
2023-02-26T10:58:58.713Z,101814.13
2023-02-26T11:01:29.171Z,101815.19
2023-02-26T11:04:19.096Z,101810.97
2023-02-26T11:06:54.936Z,101817.28
2023-02-26T11:09:36.696Z,101812.19
2023-02-26T11:12:10.691Z,101817.59
2023-02-26T11:14:37.664Z,101819.47
2023-02-26T11:17:12.254Z,101820.56
2023-02-26T11:19:44.929Z,101820.69
2023-02-26T11:22:14.324Z,101824.34
2023-02-26T11:24:46.860Z,101835.00
2023-02-26T11:27:27.435Z,101821.09
2023-02-26T11:29:59.510Z,101830.03
2023-02-26T11:32:46.136Z,101833.72
2023-02-26T11:35:15.699Z,101838.28
2023-02-26T11:37:49.306Z,101836.91
2023-02-26T11:40:39.114Z,101832.94
2023-02-26T11:43:12.425Z,101828.00
2023-02-26T11:45:43.346Z,101834.19
2023-02-26T11:48:16.510Z,101834.16
2023-02-26T11:50:48.711Z,101838.44
2023-02-26T11:53:34.385Z,101839.31
2023-02-26T11:56:08.730Z,101835.81
2023-02-26T11:58:39.808Z,101826.19
2023-02-26T12:01:09.886Z,101834.16
2023-02-26T12:03:40.893Z,101828.09
2023-02-26T12:06:22.343Z,101840.25
2023-02-26T12:08:49.200Z,101828.72
2023-02-26T12:12:10.864Z,101832.19
2023-02-26T12:15:24.542Z,101833.97
2023-02-26T12:18:22.984Z,101828.72
2023-02-26T12:21:07.729Z,101831.56
2023-02-26T12:24:15.904Z,101831.75
2023-02-26T12:27:17.766Z,101825.84
2023-02-26T12:29:55.173Z,101831.38
2023-02-26T12:32:31.129Z,101828.09
2023-02-26T12:35:14.650Z,101830.81
2023-02-26T12:38:02.903Z,101831.66
2023-02-26T12:40:53.809Z,101832.53
2023-02-26T12:43:56.872Z,101830.81
2023-02-26T12:47:24.876Z,101834.41
2023-02-26T12:49:54.914Z,101836.28
2023-02-26T12:52:33.504Z,101827.72
2023-02-26T12:55:18.933Z,101830.41
2023-02-26T12:58:25.961Z,101830.50
2023-02-26T13:01:16.577Z,101822.56
2023-02-26T13:04:05.699Z,101833.00
2023-02-26T13:07:10.519Z,101828.63
2023-02-26T13:09:55.979Z,101829.44
2023-02-26T13:12:37.840Z,101827.72
2023-02-26T13:15:52.449Z,101818.13
2023-02-26T13:19:00.383Z,101814.72
2023-02-26T13:21:55.738Z,101821.03
2023-02-26T13:24:46.360Z,101817.56
2023-02-26T13:27:15.719Z,101822.81
2023-02-26T13:29:54.059Z,101824.56
2023-02-26T13:32:26.370Z,101819.25
2023-02-26T13:35:04.253Z,101826.38
2023-02-26T13:37:39.761Z,101830.81
2023-02-26T13:41:03.708Z,101822.91
2023-02-26T13:44:12.963Z,101823.81
2023-02-26T13:47:21.332Z,101828.41
2023-02-26T13:50:06.731Z,101830.19
2023-02-26T13:52:36.705Z,101832.00
2023-02-26T13:55:05.817Z,101821.66
2023-02-26T13:57:53.982Z,101831.50
2023-02-26T14:00:36.510Z,101825.38
2023-02-26T14:03:26.600Z,101834.25
2023-02-26T14:06:24.526Z,101829.88
2023-02-26T14:08:56.969Z,101829.06
2023-02-26T14:11:43.218Z,101843.28
2023-02-26T14:14:22.173Z,101836.38
2023-02-26T14:16:55.336Z,101834.59
2023-02-26T14:19:28.702Z,101826.63
2023-02-26T14:22:18.261Z,101834.59
2023-02-26T14:25:00.637Z,101822.34
2023-02-26T14:27:40.629Z,101833.75
2023-02-26T14:30:10.403Z,101831.91
2023-02-26T14:32:54.266Z,101839.78
2023-02-26T14:35:29.046Z,101831.69
2023-02-26T14:38:08.907Z,101840.50
2023-02-26T14:40:49.551Z,101836.06
2023-02-26T14:43:23.010Z,101837.81
2023-02-26T14:45:50.787Z,101831.69
2023-02-26T14:48:22.100Z,101837.03
2023-02-26T14:51:26.875Z,101836.84
2023-02-26T14:54:30.174Z,101837.56
2023-02-26T14:57:02.588Z,101840.25
2023-02-26T14:59:54.039Z,101832.38
2023-02-26T15:02:31.713Z,101837.75
2023-02-26T15:05:41.080Z,101842.03
2023-02-26T15:08:54.241Z,101846.22
2023-02-26T15:11:51.091Z,101853.78
2023-02-26T15:14:41.810Z,101849.19
2023-02-26T15:18:02.357Z,101850.69
2023-02-26T15:20:59.163Z,101852.41
2023-02-26T15:24:01.187Z,101851.56
2023-02-26T15:26:33.993Z,101849.09
2023-02-26T15:29:05.638Z,101853.66
2023-02-26T15:31:39.171Z,101853.03
2023-02-26T15:34:06.041Z,101853.09
2023-02-26T15:36:32.986Z,101853.09
2023-02-26T15:39:04.049Z,101865.44
2023-02-26T15:41:32.709Z,101860.94
2023-02-26T15:44:08.082Z,101863.50
2023-02-26T15:46:39.323Z,101865.09
2023-02-26T15:49:25.127Z,101874.59
2023-02-26T15:51:53.250Z,101876.25
2023-02-26T15:54:24.253Z,101871.69
2023-02-26T15:56:51.562Z,101874.25
2023-02-26T15:59:25.783Z,101867.13
2023-02-26T16:01:52.885Z,101872.16
2023-02-26T16:04:22.338Z,101877.34
2023-02-26T16:06:57.480Z,101879.09
2023-02-26T16:09:35.374Z,101878.19
2023-02-26T16:12:12.409Z,101879.84
2023-02-26T16:14:44.221Z,101883.31
2023-02-26T16:17:25.282Z,101885.03
2023-02-26T16:19:54.056Z,101887.63
2023-02-26T16:23:05.614Z,101890.31
2023-02-26T16:25:56.574Z,101897.38
2023-02-26T16:28:43.875Z,101899.19
2023-02-26T16:31:19.089Z,101900.03
2023-02-26T16:34:03.112Z,101904.44
2023-02-26T16:36:41.629Z,101902.53
2023-02-26T16:39:08.575Z,101912.97
2023-02-26T16:41:39.460Z,101916.47
2023-02-26T16:44:32.270Z,101918.09
2023-02-26T16:47:01.891Z,101921.56
2023-02-26T16:49:33.593Z,101923.97
2023-02-26T16:52:01.637Z,101934.28
2023-02-26T16:54:38.988Z,101930.53
2023-02-26T16:57:14.413Z,101934.59
2023-02-26T16:59:44.349Z,101939.53
2023-02-26T17:02:22.560Z,101941.09
2023-02-26T17:04:55.084Z,101942.50
2023-02-26T17:07:28.067Z,101960.75
2023-02-26T17:10:00.627Z,101954.38
2023-02-26T17:12:40.256Z,101963.00
2023-02-26T17:15:20.781Z,101969.94
2023-02-26T17:17:48.642Z,101968.16
2023-02-26T17:20:16.191Z,101966.28
2023-02-26T17:22:44.972Z,101975.97
2023-02-26T17:25:17.695Z,101969.81
2023-02-26T17:27:45.998Z,101975.88
2023-02-26T17:30:20.403Z,101978.50
2023-02-26T17:32:47.266Z,101983.72
2023-02-26T17:35:16.077Z,101973.16
2023-02-26T17:37:45.006Z,101984.53
2023-02-26T17:40:17.462Z,101984.53
2023-02-26T17:42:45.132Z,101987.16
2023-02-26T17:45:11.867Z,101995.03
2023-02-26T17:47:38.680Z,101997.69
2023-02-26T17:50:52.209Z,102002.97
2023-02-26T17:53:21.383Z,101999.41
2023-02-26T17:55:52.228Z,102011.66
2023-02-26T17:58:26.718Z,102003.69
2023-02-26T18:00:53.955Z,102015.00
2023-02-26T18:03:20.973Z,102021.09
2023-02-26T18:05:49.793Z,102025.34
2023-02-26T18:08:24.583Z,102020.81
2023-02-26T18:10:52.719Z,102023.22
2023-02-26T18:13:20.388Z,102026.44
2023-02-26T18:15:48.433Z,102031.53
2023-02-26T18:18:15.909Z,102028.66
2023-02-26T18:20:44.058Z,102022.31
2023-02-26T18:23:13.654Z,102024.75
2023-02-26T18:25:41.719Z,102029.91
2023-02-26T18:28:17.344Z,102034.25
2023-02-26T18:30:44.804Z,102028.06
2023-02-26T18:33:12.994Z,102029.84
2023-02-26T18:35:45.788Z,102034.34
2023-02-26T18:38:19.363Z,102050.22
2023-02-26T18:40:47.210Z,102043.16
2023-02-26T18:43:14.440Z,102042.41
2023-02-26T18:45:47.924Z,102040.69
2023-02-26T18:48:20.091Z,102036.31
2023-02-26T18:50:48.076Z,102033.72
2023-02-26T18:53:17.147Z,102038.09
2023-02-26T18:55:44.622Z,102048.59
2023-02-26T18:58:11.621Z,102042.44
2023-02-26T19:00:38.465Z,102040.69
2023-02-26T19:03:05.322Z,102052.84
2023-02-26T19:05:32.101Z,102051.75
2023-02-26T19:08:00.977Z,102053.31
2023-02-26T19:10:31.609Z,102052.28
2023-02-26T19:12:59.011Z,102060.00
2023-02-26T19:15:25.778Z,102060.78
2023-02-26T19:17:52.798Z,102067.81
2023-02-26T19:20:19.702Z,102061.69
2023-02-26T19:22:47.070Z,102072.94
2023-02-26T19:25:14.297Z,102069.22
2023-02-26T19:27:41.074Z,102076.03
2023-02-26T19:30:09.207Z,102073.19
2023-02-26T19:32:36.082Z,102082.66
2023-02-26T19:35:02.995Z,102078.06
2023-02-26T19:37:29.928Z,102083.16
2023-02-26T19:39:56.696Z,102076.81
2023-02-26T19:42:24.514Z,102085.31
2023-02-26T19:44:51.759Z,102078.97
2023-02-26T19:47:18.578Z,102077.03
2023-02-26T19:49:45.356Z,102088.16
2023-02-26T19:52:12.163Z,102090.53
2023-02-26T19:54:39.027Z,102086.75
2023-02-26T19:57:05.853Z,102094.41
2023-02-26T19:59:32.694Z,102095.88
2023-02-26T20:01:59.508Z,102101.78
2023-02-26T20:04:26.332Z,102101.53
2023-02-26T20:06:53.120Z,102121.44
2023-02-26T20:09:20.243Z,102110.63
2023-02-26T20:11:47.062Z,102114.84
2023-02-26T20:14:14.001Z,102122.50
2023-02-26T20:16:41.361Z,102123.22
2023-02-26T20:19:08.145Z,102120.25
2023-02-26T20:21:35.051Z,102115.69
2023-02-26T20:24:01.857Z,102116.28
2023-02-26T20:26:28.687Z,102125.75
2023-02-26T20:28:55.433Z,102125.47
2023-02-26T20:31:22.317Z,102135.81
2023-02-26T20:33:49.168Z,102130.34
2023-02-26T20:36:16.412Z,102140.78
2023-02-26T20:38:43.225Z,102137.03
2023-02-26T20:41:10.446Z,102143.00
2023-02-26T20:43:37.429Z,102149.00
2023-02-26T20:46:04.318Z,102146.97
2023-02-26T20:48:32.615Z,102146.75
2023-02-26T20:51:01.757Z,102155.31
2023-02-26T20:53:28.795Z,102156.97
2023-02-26T20:55:56.424Z,102159.41
2023-02-26T20:58:24.777Z,102150.50
2023-02-26T21:00:55.617Z,102155.59
2023-02-26T21:03:22.506Z,102154.56
2023-02-26T21:05:49.423Z,102167.50
2023-02-26T21:08:16.230Z,102164.72
2023-02-26T21:10:43.100Z,102166.34
2023-02-26T21:13:10.054Z,102168.00
2023-02-26T21:15:37.026Z,102170.47
2023-02-26T21:18:04.004Z,102169.50
2023-02-26T21:20:30.981Z,102181.59
2023-02-26T21:22:58.748Z,102177.13
2023-02-26T21:25:25.615Z,102184.91
2023-02-26T21:27:52.469Z,102182.22
2023-02-26T21:30:19.902Z,102182.03
2023-02-26T21:32:46.729Z,102178.47
2023-02-26T21:35:15.935Z,102188.84
2023-02-26T21:37:44.659Z,102187.88
2023-02-26T21:40:13.353Z,102185.09
2023-02-26T21:42:40.966Z,102191.13
2023-02-26T21:45:08.518Z,102193.69
2023-02-26T21:47:35.297Z,102194.44
2023-02-26T21:50:02.153Z,102184.69
2023-02-26T21:52:29.062Z,102191.66
2023-02-26T21:54:58.969Z,102185.41
2023-02-26T21:57:26.524Z,102187.06
2023-02-26T21:59:53.414Z,102194.69
2023-02-26T22:02:20.245Z,102201.56
2023-02-26T22:04:47.053Z,102201.50
2023-02-26T22:07:13.876Z,102205.75
2023-02-26T22:09:40.709Z,102202.97
2023-02-26T22:12:07.792Z,102199.34
2023-02-26T22:14:34.603Z,102201.91
2023-02-26T22:17:01.465Z,102194.78
2023-02-26T22:19:28.330Z,102198.22
2023-02-26T22:21:55.185Z,102198.06
2023-02-26T22:24:23.043Z,102196.25
2023-02-26T22:26:49.885Z,102208.38
2023-02-26T22:29:19.202Z,102202.13
2023-02-26T22:31:47.257Z,102208.22
2023-02-26T22:34:14.869Z,102209.84
2023-02-26T22:36:41.861Z,102207.06
2023-02-26T22:39:08.836Z,102213.09
2023-02-26T22:41:36.562Z,102220.88
2023-02-26T22:44:04.436Z,102228.66
2023-02-26T22:46:32.229Z,102222.44
2023-02-26T22:48:59.049Z,102223.22
2023-02-26T22:51:28.008Z,102228.31
2023-02-26T22:53:55.583Z,102229.03
2023-02-26T22:56:22.373Z,102228.06
2023-02-26T22:58:49.443Z,102226.16
2023-02-26T23:01:16.268Z,102233.94
2023-02-26T23:03:43.262Z,102225.94
2023-02-26T23:06:10.523Z,102229.25
2023-02-26T23:08:37.847Z,102229.09
2023-02-26T23:11:05.557Z,102239.38
2023-02-26T23:13:35.502Z,102246.25
2023-02-26T23:16:09.324Z,102234.72
2023-02-26T23:18:37.069Z,102235.38
2023-02-26T23:21:06.488Z,102237.09
2023-02-26T23:23:33.620Z,102247.47
2023-02-26T23:26:00.429Z,102245.59
2023-02-26T23:28:27.221Z,102249.00
2023-02-26T23:30:54.029Z,102239.25
2023-02-26T23:33:20.948Z,102240.00
2023-02-26T23:35:48.091Z,102243.34
2023-02-26T23:38:15.035Z,102239.72
2023-02-26T23:40:41.810Z,102244.88
2023-02-26T23:43:08.595Z,102244.69
2023-02-26T23:45:35.460Z,102241.91
2023-02-26T23:48:02.265Z,102246.25
2023-02-26T23:50:29.092Z,102247.84
2023-02-26T23:52:55.923Z,102256.44
2023-02-26T23:55:22.883Z,102262.47
2023-02-26T23:57:49.705Z,102261.50
